EZY696U EGGD-EGAC
Flight info
| Callsign | EZY696U |
|---|---|
| Flight time | 0h 46m |
| Altitude | 26000 |
| Route | BCN P69 DIZIM N864 KISWO/N0439F270 DCT AVTIC/N0447F280 DCT MONTY UN864 BILVO UP6 TUPEM DCT REMSI DCT NINEB M148 MAGEE |
| Aircraft | A320/M-SDE3FGHIRWY/LB1 |
Departure
| Time | 2026-04-25 16:04 |
|---|---|
| Airport | Bristol Airport (EGGD) |
Arrival
| Time | 2026-04-25 16:50 |
|---|---|
| Airport | George Best Belfast City Airport (EGAC) |
| Time | Latitude | Longitude | Altitude | Speed | Heading |
|---|---|---|---|---|---|
| 2026-04-25 15:37 | 51.38521 | -2.71141 | 611 ft | 0 kts | 356° |
| 2026-04-25 15:58 | 51.38502 | -2.71140 | 627 ft | 4 kts | 356° |
| 2026-04-25 15:58 | 51.38480 | -2.71138 | 627 ft | 4 kts | 348° |
| 2026-04-25 15:58 | 51.38461 | -2.71120 | 626 ft | 4 kts | 287° |
| 2026-04-25 15:58 | 51.38460 | -2.71089 | 621 ft | 2 kts | 266° |
| 2026-04-25 15:59 | 51.38460 | -2.71087 | 621 ft | 0 kts | 266° |
| 2026-04-25 16:00 | 51.38458 | -2.71122 | 620 ft | 8 kts | 266° |
| 2026-04-25 16:00 | 51.38453 | -2.71265 | 626 ft | 17 kts | 266° |
| 2026-04-25 16:01 | 51.38444 | -2.71483 | 615 ft | 22 kts | 266° |
| 2026-04-25 16:01 | 51.38434 | -2.71749 | 606 ft | 24 kts | 267° |
| 2026-04-25 16:01 | 51.38431 | -2.71929 | 606 ft | 24 kts | 270° |
| 2026-04-25 16:01 | 51.38426 | -2.72199 | 614 ft | 24 kts | 268° |
| 2026-04-25 16:02 | 51.38416 | -2.72457 | 612 ft | 23 kts | 267° |
| 2026-04-25 16:02 | 51.38405 | -2.72718 | 608 ft | 25 kts | 266° |
| 2026-04-25 16:02 | 51.38394 | -2.72999 | 610 ft | 25 kts | 266° |
| 2026-04-25 16:02 | 51.38374 | -2.73267 | 622 ft | 22 kts | 246° |
| 2026-04-25 16:03 | 51.38262 | -2.73333 | 624 ft | 15 kts | 166° |
| 2026-04-25 16:03 | 51.38216 | -2.73226 | 626 ft | 11 kts | 91° |
| 2026-04-25 16:03 | 51.38218 | -2.73160 | 630 ft | 4 kts | 86° |
| 2026-04-25 16:03 | 51.38221 | -2.73080 | 630 ft | 23 kts | 86° |
| 2026-04-25 16:04 | 51.38251 | -2.72361 | 627 ft | 103 kts | 86° |
| 2026-04-25 16:04 | 51.38309 | -2.70855 | 633 ft | 161 kts | 86° |
| 2026-04-25 16:04 | 51.38371 | -2.69103 | 1414 ft | 154 kts | 86° |
| 2026-04-25 16:04 | 51.38437 | -2.67323 | 1956 ft | 164 kts | 87° |
| 2026-04-25 16:05 | 51.38502 | -2.65389 | 2292 ft | 185 kts | 87° |
| 2026-04-25 16:05 | 51.38564 | -2.63232 | 2588 ft | 209 kts | 88° |
| 2026-04-25 16:05 | 51.39050 | -2.58212 | 3563 ft | 249 kts | 61° |
| 2026-04-25 16:06 | 51.40319 | -2.56251 | 4147 ft | 262 kts | 30° |
| 2026-04-25 16:06 | 51.42032 | -2.55217 | 5028 ft | 266 kts | 7° |
| 2026-04-25 16:06 | 51.43872 | -2.55474 | 5904 ft | 269 kts | 340° |
| 2026-04-25 16:06 | 51.45414 | -2.57096 | 6780 ft | 273 kts | 312° |
| 2026-04-25 16:07 | 51.46488 | -2.59637 | 7639 ft | 276 kts | 301° |
| 2026-04-25 16:07 | 51.47148 | -2.61387 | 8202 ft | 278 kts | 301° |
| 2026-04-25 16:07 | 51.48492 | -2.64978 | 9318 ft | 282 kts | 301° |
| 2026-04-25 16:07 | 51.49501 | -2.67669 | 10147 ft | 286 kts | 300° |
| 2026-04-25 16:08 | 51.50527 | -2.70402 | 10627 ft | 302 kts | 301° |
| 2026-04-25 16:08 | 51.51558 | -2.73137 | 10840 ft | 323 kts | 301° |
| 2026-04-25 16:08 | 51.52765 | -2.76333 | 11051 ft | 345 kts | 301° |
| 2026-04-25 16:08 | 51.54027 | -2.79679 | 11592 ft | 354 kts | 301° |
| 2026-04-25 16:09 | 51.55296 | -2.83046 | 12321 ft | 357 kts | 300° |
| 2026-04-25 16:09 | 51.56592 | -2.86485 | 13050 ft | 361 kts | 300° |
| 2026-04-25 16:09 | 51.57899 | -2.89962 | 13784 ft | 364 kts | 300° |
| 2026-04-25 16:09 | 51.59221 | -2.93472 | 14424 ft | 368 kts | 301° |
| 2026-04-25 16:10 | 51.60592 | -2.96971 | 15046 ft | 371 kts | 302° |
| 2026-04-25 16:10 | 51.62008 | -3.00454 | 15681 ft | 374 kts | 302° |
| 2026-04-25 16:10 | 51.63454 | -3.03950 | 16291 ft | 376 kts | 303° |
| 2026-04-25 16:10 | 51.64911 | -3.07465 | 16920 ft | 379 kts | 302° |
| 2026-04-25 16:11 | 51.66358 | -3.10982 | 17524 ft | 381 kts | 302° |
| 2026-04-25 16:11 | 51.67818 | -3.14562 | 18125 ft | 383 kts | 302° |
| 2026-04-25 16:11 | 51.69333 | -3.18121 | 18673 ft | 387 kts | 308° |
| 2026-04-25 16:11 | 51.71279 | -3.21153 | 19165 ft | 391 kts | 322° |
| 2026-04-25 16:12 | 51.73655 | -3.23359 | 19667 ft | 396 kts | 335° |
| 2026-04-25 16:12 | 51.76286 | -3.24562 | 20160 ft | 402 kts | 349° |
| 2026-04-25 16:12 | 51.79106 | -3.24685 | 20638 ft | 409 kts | 4° |
| 2026-04-25 16:12 | 51.80984 | -3.24256 | 20949 ft | 412 kts | 6° |
| 2026-04-25 16:13 | 51.84793 | -3.23309 | 21582 ft | 415 kts | 6° |
| 2026-04-25 16:13 | 51.87662 | -3.22588 | 22050 ft | 417 kts | 6° |
| 2026-04-25 16:13 | 51.90553 | -3.21863 | 22513 ft | 420 kts | 6° |
| 2026-04-25 16:13 | 51.93421 | -3.21148 | 22968 ft | 423 kts | 6° |
| 2026-04-25 16:14 | 51.96351 | -3.20424 | 23422 ft | 425 kts | 5° |
| 2026-04-25 16:14 | 51.99282 | -3.19703 | 23829 ft | 428 kts | 5° |
| 2026-04-25 16:14 | 52.02235 | -3.18978 | 24171 ft | 431 kts | 5° |
| 2026-04-25 16:14 | 52.05219 | -3.18445 | 24502 ft | 431 kts | 359° |
| 2026-04-25 16:15 | 52.08232 | -3.18221 | 24859 ft | 433 kts | 359° |
| 2026-04-25 16:15 | 52.11249 | -3.17993 | 25214 ft | 435 kts | 360° |
| 2026-04-25 16:15 | 52.14245 | -3.17758 | 25566 ft | 437 kts | 360° |
| 2026-04-25 16:15 | 52.17290 | -3.17518 | 25916 ft | 439 kts | 360° |
| 2026-04-25 16:16 | 52.20356 | -3.17276 | 26267 ft | 441 kts | 360° |
| 2026-04-25 16:16 | 52.23429 | -3.17034 | 26613 ft | 442 kts | 360° |
| 2026-04-25 16:16 | 52.26515 | -3.16796 | 26947 ft | 445 kts | 360° |
| 2026-04-25 16:16 | 52.29617 | -3.16559 | 27254 ft | 447 kts | 360° |
| 2026-04-25 16:17 | 52.32743 | -3.16322 | 27568 ft | 449 kts | 360° |
| 2026-04-25 16:17 | 52.35842 | -3.16084 | 27864 ft | 451 kts | 360° |
| 2026-04-25 16:17 | 52.38975 | -3.15842 | 28136 ft | 452 kts | 360° |
| 2026-04-25 16:18 | 52.45266 | -3.15359 | 28199 ft | 450 kts | 360° |
| 2026-04-25 16:18 | 52.51488 | -3.14871 | 28201 ft | 450 kts | 360° |
| 2026-04-25 16:19 | 52.57755 | -3.14372 | 28202 ft | 450 kts | 360° |
| 2026-04-25 16:19 | 52.64002 | -3.13877 | 28204 ft | 450 kts | 360° |
| 2026-04-25 16:20 | 52.73400 | -3.13651 | 28215 ft | 446 kts | 350° |
| 2026-04-25 16:21 | 52.82601 | -3.15822 | 28195 ft | 446 kts | 349° |
| 2026-04-25 16:21 | 52.88778 | -3.17196 | 28189 ft | 448 kts | 353° |
| 2026-04-25 16:22 | 52.95020 | -3.16947 | 28187 ft | 450 kts | 0° |
| 2026-04-25 16:22 | 53.01298 | -3.16442 | 28185 ft | 451 kts | 0° |
| 2026-04-25 16:23 | 53.07569 | -3.15943 | 28179 ft | 451 kts | 0° |
| 2026-04-25 16:23 | 53.13805 | -3.15450 | 28176 ft | 451 kts | 0° |
| 2026-04-25 16:24 | 53.20103 | -3.14960 | 28177 ft | 452 kts | 0° |
| 2026-04-25 16:24 | 53.26396 | -3.14457 | 28184 ft | 452 kts | 0° |
| 2026-04-25 16:25 | 53.32653 | -3.13965 | 28193 ft | 452 kts | 0° |
| 2026-04-25 16:25 | 53.38967 | -3.13529 | 28183 ft | 451 kts | 357° |
| 2026-04-25 16:26 | 53.45199 | -3.14376 | 28203 ft | 450 kts | 353° |
| 2026-04-25 16:26 | 53.51450 | -3.15308 | 28205 ft | 450 kts | 353° |
| 2026-04-25 16:27 | 53.57671 | -3.16223 | 28205 ft | 450 kts | 353° |
| 2026-04-25 16:27 | 53.63904 | -3.17170 | 28205 ft | 450 kts | 353° |
| 2026-04-25 16:28 | 53.69940 | -3.19625 | 28217 ft | 445 kts | 334° |
| 2026-04-25 16:28 | 53.72634 | -3.22155 | 28213 ft | 442 kts | 323° |
| 2026-04-25 16:28 | 53.75006 | -3.25443 | 28205 ft | 440 kts | 313° |
| 2026-04-25 16:29 | 53.78589 | -3.33687 | 28202 ft | 437 kts | 300° |
| 2026-04-25 16:29 | 53.81758 | -3.42508 | 28199 ft | 438 kts | 300° |
| 2026-04-25 16:30 | 53.84907 | -3.51285 | 28199 ft | 438 kts | 300° |
| 2026-04-25 16:30 | 53.88069 | -3.60114 | 28199 ft | 438 kts | 300° |
| 2026-04-25 16:31 | 53.91220 | -3.68961 | 28202 ft | 438 kts | 300° |
| 2026-04-25 16:31 | 53.94351 | -3.77792 | 28223 ft | 437 kts | 300° |
| 2026-04-25 16:32 | 53.97480 | -3.86685 | 28210 ft | 437 kts | 299° |
| 2026-04-25 16:32 | 54.00502 | -3.95610 | 28200 ft | 437 kts | 298° |
| 2026-04-25 16:33 | 54.03496 | -4.04618 | 27308 ft | 439 kts | 298° |
| 2026-04-25 16:33 | 54.04998 | -4.09132 | 26575 ft | 435 kts | 298° |
| 2026-04-25 16:33 | 54.06538 | -4.13555 | 25848 ft | 432 kts | 303° |
| 2026-04-25 16:33 | 54.08252 | -4.17685 | 25126 ft | 430 kts | 304° |
| 2026-04-25 16:34 | 54.09983 | -4.21833 | 24401 ft | 428 kts | 304° |
| 2026-04-25 16:34 | 54.11699 | -4.25964 | 23677 ft | 425 kts | 303° |
| 2026-04-25 16:34 | 54.13402 | -4.30085 | 22928 ft | 422 kts | 303° |
| 2026-04-25 16:34 | 54.15086 | -4.34169 | 22266 ft | 417 kts | 303° |
| 2026-04-25 16:35 | 54.16729 | -4.38160 | 21637 ft | 413 kts | 303° |
| 2026-04-25 16:35 | 54.18376 | -4.42161 | 21003 ft | 409 kts | 303° |
| 2026-04-25 16:35 | 54.20005 | -4.46121 | 20402 ft | 405 kts | 303° |
| 2026-04-25 16:35 | 54.21623 | -4.50059 | 19819 ft | 401 kts | 303° |
| 2026-04-25 16:36 | 54.23216 | -4.53956 | 19241 ft | 397 kts | 303° |
| 2026-04-25 16:36 | 54.23728 | -4.55211 | 19075 ft | 396 kts | 303° |
| 2026-04-25 16:36 | 54.26334 | -4.61593 | 18154 ft | 390 kts | 303° |
| 2026-04-25 16:36 | 54.27878 | -4.65369 | 17644 ft | 385 kts | 303° |
| 2026-04-25 16:37 | 54.29400 | -4.69103 | 17150 ft | 380 kts | 303° |
| 2026-04-25 16:37 | 54.30903 | -4.72802 | 16663 ft | 375 kts | 303° |
| 2026-04-25 16:37 | 54.32385 | -4.76458 | 16183 ft | 372 kts | 303° |
| 2026-04-25 16:37 | 54.33855 | -4.80088 | 15686 ft | 369 kts | 302° |
| 2026-04-25 16:38 | 54.35314 | -4.83704 | 15189 ft | 367 kts | 302° |
| 2026-04-25 16:38 | 54.36752 | -4.87269 | 14666 ft | 366 kts | 302° |
| 2026-04-25 16:38 | 54.38202 | -4.90871 | 14161 ft | 365 kts | 302° |
| 2026-04-25 16:38 | 54.39646 | -4.94463 | 13576 ft | 365 kts | 302° |
| 2026-04-25 16:39 | 54.41088 | -4.98049 | 13024 ft | 363 kts | 302° |
| 2026-04-25 16:39 | 54.42516 | -5.01607 | 12456 ft | 361 kts | 303° |
| 2026-04-25 16:39 | 54.43935 | -5.05154 | 11879 ft | 359 kts | 303° |
| 2026-04-25 16:39 | 54.45332 | -5.08636 | 11304 ft | 357 kts | 303° |
| 2026-04-25 16:40 | 54.46734 | -5.12103 | 11075 ft | 345 kts | 303° |
| 2026-04-25 16:40 | 54.48090 | -5.15436 | 10946 ft | 331 kts | 303° |
| 2026-04-25 16:40 | 54.49391 | -5.18625 | 10823 ft | 319 kts | 303° |
| 2026-04-25 16:40 | 54.50714 | -5.21611 | 10694 ft | 308 kts | 311° |
| 2026-04-25 16:41 | 54.52258 | -5.24032 | 10565 ft | 300 kts | 320° |
| 2026-04-25 16:41 | 54.52810 | -5.24778 | 10477 ft | 298 kts | 320° |
| 2026-04-25 16:41 | 54.57095 | -5.30581 | 10221 ft | 292 kts | 320° |
| 2026-04-25 16:42 | 54.58702 | -5.32771 | 9737 ft | 298 kts | 320° |
| 2026-04-25 16:42 | 54.60318 | -5.34977 | 9454 ft | 293 kts | 320° |
| 2026-04-25 16:42 | 54.61888 | -5.37122 | 9079 ft | 291 kts | 320° |
| 2026-04-25 16:42 | 54.63471 | -5.39289 | 8694 ft | 289 kts | 320° |
| 2026-04-25 16:43 | 54.65035 | -5.41430 | 8102 ft | 285 kts | 320° |
| 2026-04-25 16:43 | 54.66066 | -5.42839 | 7654 ft | 284 kts | 320° |
| 2026-04-25 16:43 | 54.67606 | -5.44945 | 7022 ft | 281 kts | 320° |
| 2026-04-25 16:43 | 54.69132 | -5.47033 | 6383 ft | 277 kts | 320° |
| 2026-04-25 16:44 | 54.70639 | -5.49098 | 5734 ft | 273 kts | 320° |
| 2026-04-25 16:44 | 54.72122 | -5.51128 | 5087 ft | 269 kts | 320° |
| 2026-04-25 16:44 | 54.73582 | -5.53131 | 4439 ft | 265 kts | 320° |
| 2026-04-25 16:44 | 54.75004 | -5.55086 | 3949 ft | 259 kts | 319° |
| 2026-04-25 16:45 | 54.76354 | -5.56943 | 3878 ft | 238 kts | 320° |
| 2026-04-25 16:45 | 54.77546 | -5.58800 | 3817 ft | 223 kts | 306° |
| 2026-04-25 16:45 | 54.78275 | -5.61076 | 3731 ft | 211 kts | 286° |
| 2026-04-25 16:45 | 54.78497 | -5.63514 | 3629 ft | 201 kts | 266° |
| 2026-04-25 16:46 | 54.78261 | -5.65818 | 3533 ft | 194 kts | 248° |
| 2026-04-25 16:46 | 54.77613 | -5.67867 | 3449 ft | 194 kts | 230° |
| 2026-04-25 16:46 | 54.76721 | -5.69327 | 3367 ft | 192 kts | 214° |
| 2026-04-25 16:46 | 54.75988 | -5.70199 | 3234 ft | 192 kts | 214° |
| 2026-04-25 16:47 | 54.74522 | -5.71974 | 2905 ft | 195 kts | 214° |
| 2026-04-25 16:47 | 54.73402 | -5.73326 | 2648 ft | 197 kts | 213° |
| 2026-04-25 16:47 | 54.72276 | -5.74683 | 2395 ft | 196 kts | 213° |
| 2026-04-25 16:47 | 54.71187 | -5.75995 | 2139 ft | 190 kts | 214° |
| 2026-04-25 16:48 | 54.70111 | -5.77290 | 1873 ft | 186 kts | 213° |
| 2026-04-25 16:48 | 54.69058 | -5.78556 | 1619 ft | 181 kts | 212° |
| 2026-04-25 16:48 | 54.68043 | -5.79775 | 1373 ft | 178 kts | 213° |
| 2026-04-25 16:48 | 54.67034 | -5.80988 | 1144 ft | 172 kts | 211° |
| 2026-04-25 16:49 | 54.66109 | -5.82101 | 910 ft | 153 kts | 212° |
| 2026-04-25 16:49 | 54.65259 | -5.83118 | 677 ft | 146 kts | 212° |
| 2026-04-25 16:49 | 54.64440 | -5.84115 | 495 ft | 142 kts | 212° |
| 2026-04-25 16:49 | 54.63636 | -5.85080 | 324 ft | 142 kts | 211° |
| 2026-04-25 16:50 | 54.62827 | -5.86046 | 145 ft | 141 kts | 210° |
| 2026-04-25 16:50 | 54.62033 | -5.86985 | 28 ft | 129 kts | 212° |
| 2026-04-25 16:50 | 54.61499 | -5.87619 | 21 ft | 52 kts | 214° |
| 2026-04-25 16:50 | 54.61326 | -5.87792 | 21 ft | 13 kts | 175° |
| 2026-04-25 16:51 | 54.61300 | -5.87762 | 23 ft | 1 kts | 134° |
| 2026-04-25 16:51 | 54.61263 | -5.87671 | 23 ft | 13 kts | 122° |
| 2026-04-25 16:51 | 54.61301 | -5.87543 | 23 ft | 14 kts | 36° |
| 2026-04-25 16:51 | 54.61354 | -5.87479 | 23 ft | 14 kts | 34° |
| 2026-04-25 16:52 | 54.61453 | -5.87314 | 23 ft | 9 kts | 34° |
| 2026-04-25 16:52 | 54.61504 | -5.87256 | 23 ft | 8 kts | 35° |
| 2026-04-25 16:52 | 54.61542 | -5.87202 | 23 ft | 6 kts | 63° |
| 2026-04-25 16:52 | 54.61522 | -5.87160 | 23 ft | 5 kts | 161° |
| 2026-04-25 16:53 | 54.61497 | -5.87141 | 25 ft | 1 kts | 157° |
| 2026-04-25 16:53 | 54.61496 | -5.87141 | 25 ft | 0 kts | 157° |